Time;durP1;ratioP1;P1;durP2;ratioP2;P2;SDS_P1;SDS_P2;PMS_P1;PMS_P2;Temp;Humidity;BMP_temperature;BMP_pressure;BME280_temperature;BME280_humidity;BME280_pressure;Samples;Min_cycle;Max_cycle;Signal;HPM_P1;HPM_P2
2022/10/09 00:01:23;;;;;;;7.83;5.40;;;;;;;15.78;100.00;100018.16;6245783;22;20214;-84
2022/10/09 00:03:51;;;;;;;6.83;5.53;;;;;;;15.76;100.00;100020.31;6247313;22;20211;-86
2022/10/09 00:06:21;;;;;;;8.10;5.90;;;;;;;15.83;100.00;100014.72;6273521;22;20274;-85
2022/10/09 00:08:48;;;;;;;7.80;5.57;;;;;;;15.72;100.00;100021.81;6274165;22;20203;-84
2022/10/09 00:11:18;;;;;;;5.83;5.07;;;;;;;15.60;100.00;100004.88;6245772;22;20220;-84
2022/10/09 00:13:46;;;;;;;7.97;4.93;;;;;;;15.72;100.00;100013.72;6273940;22;20235;-84
2022/10/09 00:16:14;;;;;;;7.63;5.33;;;;;;;15.65;100.00;100015.78;6247316;22;20204;-84
2022/10/09 00:18:41;;;;;;;6.37;5.20;;;;;;;15.48;100.00;100011.38;6274385;22;20206;-84
2022/10/09 00:21:26;;;;;;;7.17;5.40;;;;;;;15.53;100.00;100012.31;6274321;22;20510;-84
2022/10/09 00:23:55;;;;;;;6.10;5.37;;;;;;;15.52;100.00;100017.97;6247543;22;20246;-84
2022/10/09 00:26:22;;;;;;;7.57;5.57;;;;;;;15.48;100.00;100023.00;6274420;22;20234;-84
2022/10/09 00:28:49;;;;;;;6.53;5.20;;;;;;;15.47;100.00;100029.44;6273754;22;20676;-86
2022/10/09 00:31:16;;;;;;;7.33;5.30;;;;;;;15.41;100.00;100023.13;6247381;22;20287;-83
2022/10/09 00:33:43;;;;;;;6.30;5.40;;;;;;;15.43;100.00;100020.19;6247257;22;20208;-84
2022/10/09 00:36:15;;;;;;;6.23;5.07;;;;;;;15.53;100.00;100011.50;6246700;22;20750;-86
2022/10/09 00:38:42;;;;;;;6.87;5.73;;;;;;;15.42;100.00;100016.69;6274114;22;20677;-83
2022/10/09 00:41:13;;;;;;;6.10;5.50;;;;;;;15.28;100.00;100020.72;6273865;22;20210;-86
2022/10/09 00:43:45;;;;;;;6.97;5.30;;;;;;;15.36;100.00;100033.84;6232862;22;20219;-84
2022/10/09 00:46:38;;;;;;;5.87;5.10;;;;;;;15.35;100.00;100034.88;6246475;22;20719;-85
2022/10/09 00:49:28;;;;;;;6.40;5.30;;;;;;;15.16;100.00;100017.25;6257704;22;20210;-83
2022/10/09 00:51:57;;;;;;;6.00;5.40;;;;;;;15.30;100.00;100010.50;6273504;22;20635;-83
2022/10/09 00:54:26;;;;;;;7.83;5.27;;;;;;;15.34;100.00;100021.66;6246152;22;20252;-85
2022/10/09 00:56:53;;;;;;;6.40;5.13;;;;;;;15.25;100.00;100015.00;6273958;22;20277;-83
2022/10/09 00:59:20;;;;;;;7.30;5.10;;;;;;;15.16;100.00;100033.47;6273577;22;20211;-84
2022/10/09 01:01:47;;;;;;;6.83;5.30;;;;;;;15.25;100.00;100033.91;6246863;22;20207;-84
2022/10/09 01:04:14;;;;;;;6.20;5.03;;;;;;;15.13;100.00;100044.72;6230635;22;20294;-83
2022/10/09 01:06:59;;;;;;;5.83;4.77;;;;;;;15.24;100.00;100048.44;6273430;22;20661;-84
2022/10/09 01:09:46;;;;;;;6.20;4.77;;;;;;;15.25;100.00;100047.38;6246439;22;20569;-83
2022/10/09 01:12:22;;;;;;;6.43;5.40;;;;;;;14.97;100.00;100053.56;6272693;22;20281;-83
2022/10/09 01:15:11;;;;;;;7.13;5.10;;;;;;;15.08;100.00;100063.50;6274075;22;20274;-84
2022/10/09 01:17:49;;;;;;;6.33;4.60;;;;;;;15.11;100.00;100054.94;6273625;22;20217;-84
2022/10/09 01:20:30;;;;;;;5.90;5.33;;;;;;;15.04;100.00;100054.25;6245615;22;20261;-83
2022/10/09 01:23:06;;;;;;;6.57;5.23;;;;;;;14.93;100.00;100058.59;6273786;22;20237;-84
2022/10/09 01:25:40;;;;;;;5.87;5.00;;;;;;;14.76;100.00;100052.28;6273405;22;20233;-83
2022/10/09 01:28:08;;;;;;;6.53;5.10;;;;;;;14.74;100.00;100054.44;6245788;22;20234;-84
2022/10/09 01:30:35;;;;;;;7.60;4.57;;;;;;;14.70;100.00;100069.41;6246707;22;20209;-83
2022/10/09 01:33:03;;;;;;;5.57;4.80;;;;;;;14.63;100.00;100071.44;6273522;22;20659;-83
2022/10/09 01:35:30;;;;;;;6.87;4.97;;;;;;;14.77;100.00;100077.41;6246790;22;20187;-83
2022/10/09 01:37:57;;;;;;;5.47;4.33;;;;;;;14.77;100.00;100075.53;6273429;22;20217;-83
2022/10/09 01:40:25;;;;;;;6.10;4.37;;;;;;;14.60;100.00;100068.38;6245461;22;20209;-83
2022/10/09 01:42:52;;;;;;;4.90;4.40;;;;;;;14.48;100.00;100076.47;6246651;22;20273;-83
2022/10/09 01:45:19;;;;;;;5.73;4.30;;;;;;;14.58;100.00;100070.47;6273496;22;20191;-84
2022/10/09 01:47:45;;;;;;;7.63;4.80;;;;;;;14.53;100.00;100079.28;6246072;22;20708;-83
2022/10/09 01:50:22;;;;;;;6.63;4.30;;;;;;;14.55;100.00;100077.19;6245488;22;20207;-84
2022/10/09 01:52:51;;;;;;;5.27;4.10;;;;;;;14.44;100.00;100088.75;6245870;22;21332;-84
2022/10/09 01:55:43;;;;;;;5.50;2.90;;;;;;;14.49;89.89;100094.28;6273095;22;20421;-84
2022/10/09 01:58:18;;;;;;;4.37;2.83;;;;;;;14.38;89.56;100092.38;6272464;22;20209;-84
2022/10/09 02:00:53;;;;;;;4.17;3.53;;;;;;;14.34;88.79;100102.78;6273301;22;20704;-85
2022/10/09 02:03:20;;;;;;;5.57;3.47;;;;;;;14.36;90.50;100108.81;6246113;22;20214;-83
2022/10/09 02:05:48;;;;;;;3.77;2.97;;;;;;;14.30;91.38;100114.25;6273106;22;20206;-83
2022/10/09 02:08:17;;;;;;;4.40;3.00;;;;;;;14.23;91.85;100121.66;6246049;22;20188;-83
2022/10/09 02:10:45;;;;;;;3.07;2.70;;;;;;;14.11;93.01;100111.66;6272969;22;20206;-83
2022/10/09 02:13:12;;;;;;;3.90;3.23;;;;;;;14.11;91.44;100117.03;6221066;22;20218;-84
2022/10/09 02:15:49;;;;;;;3.43;3.10;;;;;;;14.24;89.82;100128.66;6272811;22;20525;-83
2022/10/09 02:18:22;;;;;;;3.57;2.97;;;;;;;14.09;91.65;100127.22;6245847;22;20267;-85
2022/10/09 02:20:51;;;;;;;5.40;3.17;;;;;;;13.92;93.82;100126.25;6273044;22;20201;-83
2022/10/09 02:23:18;;;;;;;5.37;3.20;;;;;;;13.91;95.21;100124.59;6246039;22;20204;-83
2022/10/09 02:25:45;;;;;;;6.20;3.30;;;;;;;14.03;93.48;100124.66;6272956;22;20290;-83
2022/10/09 02:28:12;;;;;;;4.20;3.60;;;;;;;13.94;94.88;100128.72;6272512;22;20236;-84
2022/10/09 02:30:58;;;;;;;4.17;3.37;;;;;;;13.88;97.02;100135.00;6272808;22;20204;-84
2022/10/09 02:33:32;;;;;;;3.50;3.00;;;;;;;13.66;100.00;100140.06;6246417;22;20247;-83
2022/10/09 02:35:59;;;;;;;4.10;3.20;;;;;;;13.53;100.00;100132.19;6245726;22;20290;-83
2022/10/09 02:38:26;;;;;;;6.23;3.40;;;;;;;13.59;100.00;100140.16;6245709;22;20194;-84
2022/10/09 02:40:57;;;;;;;4.70;4.20;;;;;;;13.58;100.00;100143.06;6273314;22;20265;-83
2022/10/09 02:43:23;;;;;;;6.40;3.70;;;;;;;13.60;100.00;100140.97;6272848;22;20304;-83
2022/10/09 02:45:50;;;;;;;5.63;4.00;;;;;;;13.55;100.00;100149.72;6272907;22;20207;-84
2022/10/09 02:48:16;;;;;;;7.33;4.13;;;;;;;13.54;100.00;100148.09;6272312;22;20257;-83
2022/10/09 02:50:43;;;;;;;6.43;3.67;;;;;;;13.62;100.00;100147.75;6273017;22;20219;-84
2022/10/09 02:53:10;;;;;;;5.77;3.40;;;;;;;13.52;100.00;100158.28;6272508;22;20231;-84
2022/10/09 02:55:36;;;;;;;3.73;3.13;;;;;;;13.55;100.00;100154.28;6273510;22;20184;-83
2022/10/09 02:58:03;;;;;;;3.40;3.07;;;;;;;13.40;100.00;100159.22;6272321;22;20207;-83
2022/10/09 03:00:29;;;;;;;3.50;2.97;;;;;;;13.45;100.00;100148.63;6273192;22;20551;-83
2022/10/09 03:02:56;;;;;;;3.17;2.70;;;;;;;13.33;100.00;100159.31;6272949;22;20216;-83
2022/10/09 03:05:23;;;;;;;3.17;2.70;;;;;;;13.29;100.00;100155.44;6272588;22;20209;-83
2022/10/09 03:07:52;;;;;;;3.77;2.80;;;;;;;13.23;100.00;100167.09;6272900;22;20215;-84
2022/10/09 03:10:19;;;;;;;4.07;2.80;;;;;;;13.14;100.00;100161.19;6246101;22;20664;-83
2022/10/09 03:12:46;;;;;;;4.37;3.17;;;;;;;12.97;100.00;100161.97;6245674;22;20206;-83
2022/10/09 03:15:13;;;;;;;4.30;2.40;;;;;;;12.92;100.00;100167.19;6272668;22;20284;-83
2022/10/09 03:17:40;;;;;;;5.33;2.67;;;;;;;12.87;100.00;100164.34;6272844;22;20204;-82
2022/10/09 03:20:07;;;;;;;4.17;2.43;;;;;;;12.83;100.00;100169.31;6272514;22;20214;-83
2022/10/09 03:22:34;;;;;;;4.53;2.80;;;;;;;12.84;100.00;100162.91;6274186;22;20690;-83
2022/10/09 03:25:00;;;;;;;3.30;2.70;;;;;;;12.66;100.00;100169.06;6274019;22;20648;-82
2022/10/09 03:27:27;;;;;;;4.37;2.50;;;;;;;12.67;100.00;100164.50;6272854;22;20234;-83
2022/10/09 03:29:53;;;;;;;3.37;2.40;;;;;;;12.54;100.00;100168.13;6273676;22;20695;-83
2022/10/09 03:32:20;;;;;;;3.97;2.60;;;;;;;12.38;100.00;100176.72;6246578;22;20204;-83
2022/10/09 03:34:47;;;;;;;4.37;2.60;;;;;;;12.31;100.00;100174.09;6273432;22;20270;-84
2022/10/09 03:37:13;;;;;;;3.93;2.40;;;;;;;12.25;100.00;100182.19;6272713;22;20209;-83
2022/10/09 03:39:40;;;;;;;6.10;2.57;;;;;;;12.24;100.00;100188.59;6272570;22;20212;-83
2022/10/09 03:42:06;;;;;;;3.93;2.33;;;;;;;12.25;100.00;100190.25;6272498;22;20204;-83
2022/10/09 03:44:33;;;;;;;3.10;2.20;;;;;;;12.18;100.00;100190.28;6275223;22;20204;-83
2022/10/09 03:46:59;;;;;;;4.30;2.53;;;;;;;11.98;100.00;100192.28;6249326;22;20219;-82
2022/10/09 03:49:26;;;;;;;4.23;2.27;;;;;;;12.07;100.00;100191.00;6274942;22;20204;-84
2022/10/09 03:51:53;;;;;;;2.83;2.30;;;;;;;11.90;100.00;100187.16;6274592;22;20204;-83
2022/10/09 03:54:19;;;;;;;2.83;2.30;;;;;;;11.81;100.00;100181.19;6246703;22;20222;-83
2022/10/09 03:56:46;;;;;;;3.40;2.13;;;;;;;11.84;100.00;100179.97;6274123;22;20215;-84
2022/10/09 03:59:12;;;;;;;5.33;2.73;;;;;;;11.73;100.00;100172.56;6274457;22;20208;-83
2022/10/09 04:01:39;;;;;;;3.50;2.47;;;;;;;11.66;100.00;100180.66;6275392;22;20260;-83
2022/10/09 04:04:05;;;;;;;3.57;2.43;;;;;;;11.43;100.00;100186.50;6275113;22;20211;-83
2022/10/09 04:06:32;;;;;;;3.57;2.30;;;;;;;11.38;100.00;100188.19;6274491;22;20229;-83
2022/10/09 04:09:00;;;;;;;3.63;2.30;;;;;;;11.47;100.00;100182.38;6274201;22;20661;-83
2022/10/09 04:11:26;;;;;;;3.90;2.30;;;;;;;11.46;100.00;100177.22;6274429;22;20204;-83
2022/10/09 04:13:53;;;;;;;4.03;2.30;;;;;;;11.23;100.00;100185.75;6275093;22;20663;-83
2022/10/09 04:16:19;;;;;;;3.03;2.00;;;;;;;11.34;100.00;100178.88;6274846;22;20210;-83
2022/10/09 04:18:46;;;;;;;3.07;2.10;;;;;;;11.28;100.00;100187.78;6277509;22;20261;-83
2022/10/09 04:21:13;;;;;;;3.37;2.33;;;;;;;11.16;100.00;100181.41;6252140;22;20207;-83
2022/10/09 04:23:39;;;;;;;3.97;2.13;;;;;;;11.00;100.00;100182.69;6276769;22;20275;-83
2022/10/09 04:26:06;;;;;;;2.87;2.20;;;;;;;11.00;100.00;100183.53;6274229;22;20214;-83
2022/10/09 04:28:33;;;;;;;4.63;2.80;;;;;;;10.92;100.00;100188.25;6274538;22;20203;-84
2022/10/09 04:31:00;;;;;;;3.63;2.40;;;;;;;10.85;100.00;100198.19;6274060;22;20212;-83
2022/10/09 04:33:27;;;;;;;3.90;2.23;;;;;;;10.81;100.00;100191.59;6274268;22;20211;-83
2022/10/09 04:35:54;;;;;;;3.23;2.27;;;;;;;10.79;100.00;100199.81;6222152;22;20219;-83
2022/10/09 04:38:22;;;;;;;3.57;2.30;;;;;;;10.85;100.00;100195.50;6273126;22;20665;-83
2022/10/09 04:41:02;;;;;;;4.13;2.70;;;;;;;10.76;100.00;100202.94;6274430;22;20272;-85
2022/10/09 04:43:30;;;;;;;4.13;2.30;;;;;;;10.76;100.00;100204.78;6274209;22;20206;-83
2022/10/09 04:45:57;;;;;;;4.37;2.70;;;;;;;10.72;100.00;100207.06;6275485;22;20208;-82
2022/10/09 04:48:24;;;;;;;4.03;2.50;;;;;;;10.67;100.00;100198.81;6274399;22;20249;-83
2022/10/09 04:50:51;;;;;;;5.83;2.37;;;;;;;10.52;100.00;100200.84;6274100;22;20200;-83
2022/10/09 04:53:18;;;;;;;3.47;2.20;;;;;;;10.45;100.00;100214.22;6273614;22;20246;-82
2022/10/09 04:55:44;;;;;;;3.47;2.17;;;;;;;10.50;100.00;100211.75;6273697;22;20211;-82
2022/10/09 04:58:11;;;;;;;3.23;2.30;;;;;;;10.53;100.00;100214.06;6273920;22;20664;-83
2022/10/09 05:00:42;;;;;;;4.57;2.40;;;;;;;10.65;100.00;100214.25;6248870;22;20541;-83
2022/10/09 05:03:10;;;;;;;5.10;2.40;;;;;;;10.59;100.00;100213.22;6278620;22;20204;-81
2022/10/09 05:05:37;;;;;;;4.00;2.50;;;;;;;10.54;100.00;100207.66;6279803;22;20203;-82
2022/10/09 05:08:04;;;;;;;5.27;2.20;;;;;;;10.61;100.00;100218.38;6250936;22;20207;-82
2022/10/09 05:10:31;;;;;;;7.17;2.73;;;;;;;10.37;100.00;100224.31;6278759;22;20218;-82
2022/10/09 05:12:58;;;;;;;3.97;2.57;;;;;;;10.28;100.00;100225.53;6275431;22;20227;-83
2022/10/09 05:15:25;;;;;;;4.33;2.50;;;;;;;10.24;100.00;100229.66;6247024;22;20572;-83
2022/10/09 05:17:51;;;;;;;2.67;2.47;;;;;;;10.25;100.00;100216.06;6274094;22;20200;-82
2022/10/09 05:20:18;;;;;;;3.03;2.30;;;;;;;10.18;100.00;100225.09;6273807;22;20200;-83
2022/10/09 05:22:45;;;;;;;5.10;2.57;;;;;;;10.12;100.00;100222.19;6258671;22;20200;-84
2022/10/09 05:25:13;;;;;;;5.63;2.60;;;;;;;10.25;100.00;100228.63;6273097;22;20208;-82
2022/10/09 05:27:40;;;;;;;4.30;2.27;;;;;;;10.23;100.00;100234.19;6246765;22;20211;-82
2022/10/09 05:30:07;;;;;;;4.27;2.10;;;;;;;10.32;100.00;100240.19;6233387;22;20550;-82
2022/10/09 05:32:34;;;;;;;2.73;2.20;;;;;;;10.19;100.00;100246.34;6274816;22;20668;-83
2022/10/09 05:35:00;;;;;;;3.27;2.37;;;;;;;10.17;100.00;100239.53;6275475;22;20208;-86
2022/10/09 05:37:27;;;;;;;4.07;2.40;;;;;;;10.24;100.00;100249.22;6274821;22;20207;-84
2022/10/09 05:39:54;;;;;;;3.67;2.33;;;;;;;10.31;100.00;100257.28;6275182;22;20214;-84
2022/10/09 05:42:20;;;;;;;3.63;2.10;;;;;;;10.32;100.00;100253.56;6247395;22;20215;-84
2022/10/09 05:44:47;;;;;;;3.10;2.00;;;;;;;10.26;100.00;100244.50;6274466;22;20660;-84
2022/10/09 05:47:16;;;;;;;4.67;2.43;;;;;;;10.38;100.00;100244.72;6273974;22;20668;-84
2022/10/09 05:49:43;;;;;;;3.70;2.10;;;;;;;10.41;100.00;100258.53;6273677;22;20203;-85
2022/10/09 05:52:09;;;;;;;3.23;2.30;;;;;;;10.48;100.00;100259.38;6272830;22;20200;-85
2022/10/09 05:54:36;;;;;;;4.23;2.40;;;;;;;10.58;100.00;100264.34;6273222;22;20230;-85
2022/10/09 05:57:03;;;;;;;2.40;2.20;;;;;;;10.69;100.00;100268.25;6271916;22;20219;-84
2022/10/09 05:59:30;;;;;;;3.00;2.00;;;;;;;10.85;100.00;100276.75;6273111;22;20208;-83
2022/10/09 06:01:57;;;;;;;2.30;2.10;;;;;;;10.88;100.00;100273.63;6273304;22;20211;-83
2022/10/09 06:04:24;;;;;;;4.87;2.10;;;;;;;11.04;100.00;100275.09;6246165;22;20204;-84
2022/10/09 06:06:51;;;;;;;2.17;1.97;;;;;;;11.15;100.00;100276.31;6273533;22;20213;-82
2022/10/09 06:09:23;;;;;;;4.40;2.20;;;;;;;11.19;100.00;100281.06;6275084;22;20451;-83
2022/10/09 06:11:51;;;;;;;2.20;2.00;;;;;;;11.17;100.00;100284.97;6249231;22;20785;-84
2022/10/09 06:14:20;;;;;;;3.63;2.10;;;;;;;11.31;100.00;100289.28;6272953;22;20218;-84
2022/10/09 06:16:48;;;;;;;2.77;1.80;;;;;;;11.35;100.00;100295.88;6247593;22;20270;-84
2022/10/09 06:19:16;;;;;;;3.27;1.87;;;;;;;11.53;100.00;100287.19;6246206;22;20215;-83
2022/10/09 06:21:43;;;;;;;3.17;2.00;;;;;;;11.63;100.00;100292.94;6246922;22;20753;-83
2022/10/09 06:24:16;;;;;;;4.53;2.13;;;;;;;11.78;100.00;100299.75;6246144;22;20211;-84
2022/10/09 06:26:43;;;;;;;3.23;1.83;;;;;;;11.98;100.00;100302.38;6247222;22;20603;-84
2022/10/09 06:29:10;;;;;;;5.10;2.00;;;;;;;12.06;100.00;100299.47;6277446;22;20204;-83
2022/10/09 06:31:36;;;;;;;3.23;1.90;;;;;;;12.05;100.00;100300.50;6249905;22;20207;-83
2022/10/09 06:34:03;;;;;;;2.43;1.90;;;;;;;12.19;100.00;100298.56;6276567;22;20659;-83
2022/10/09 06:36:33;;;;;;;2.33;1.80;;;;;;;12.17;100.00;100304.19;6280756;22;20275;-82
2022/10/09 06:39:01;;;;;;;2.80;1.83;;;;;;;12.46;98.03;100294.69;6280382;22;20211;-83
2022/10/09 06:41:28;;;;;;;3.13;2.07;;;;;;;12.40;95.74;100290.22;6284085;22;20204;-82
2022/10/09 06:43:57;;;;;;;2.23;1.80;;;;;;;12.47;93.84;100299.03;6283580;22;20208;-82
2022/10/09 06:46:38;;;;;;;3.90;2.13;;;;;;;12.40;94.83;100311.72;6283815;22;20203;-83
2022/10/09 06:49:06;;;;;;;3.80;1.90;;;;;;;12.54;92.01;100307.91;6257207;22;20508;-82
2022/10/09 06:51:34;;;;;;;4.57;1.80;;;;;;;12.54;93.06;100315.97;6257195;22;20203;-82
2022/10/09 06:54:03;;;;;;;2.30;1.53;;;;;;;12.57;90.32;100314.69;6279880;22;20215;-82
2022/10/09 06:56:30;;;;;;;3.03;1.60;;;;;;;12.79;90.59;100316.00;6282569;22;20196;-82
2022/10/09 06:59:02;;;;;;;4.77;1.67;;;;;;;12.77;91.29;100308.16;6278850;22;20204;-83
2022/10/09 07:01:30;;;;;;;2.07;1.70;;;;;;;12.91;87.88;100318.84;6251101;22;20720;-83
2022/10/09 07:04:05;;;;;;;2.27;1.90;;;;;;;12.89;88.74;100327.09;6275950;22;20211;-84
2022/10/09 07:06:35;;;;;;;3.07;1.60;;;;;;;13.07;85.41;100334.41;6246636;22;20538;-82
2022/10/09 07:09:04;;;;;;;3.00;1.70;;;;;;;13.11;86.98;100331.09;6246533;22;20208;-84
2022/10/09 07:11:33;;;;;;;3.63;1.70;;;;;;;13.27;84.27;100332.44;6272445;22;20211;-84
2022/10/09 07:14:02;;;;;;;4.17;1.60;;;;;;;13.31;83.75;100340.88;6245615;22;20219;-83
2022/10/09 07:16:32;;;;;;;3.53;1.90;;;;;;;13.43;81.35;100339.13;6246152;22;20201;-83
2022/10/09 07:19:02;;;;;;;4.23;1.70;;;;;;;13.41;82.46;100342.03;6247228;22;20231;-85
2022/10/09 07:21:31;;;;;;;4.03;1.80;;;;;;;13.46;81.20;100344.91;6247652;22;20525;-84
2022/10/09 07:23:59;;;;;;;2.90;1.70;;;;;;;13.61;78.52;100339.16;6223035;22;20553;-87
2022/10/09 07:26:27;;;;;;;2.97;1.57;;;;;;;13.54;78.66;100339.22;6280689;22;20213;-84
2022/10/09 07:28:55;;;;;;;3.03;1.70;;;;;;;13.42;79.17;100337.47;6289462;22;20256;-84
2022/10/09 07:31:22;;;;;;;4.03;2.03;;;;;;;13.48;79.53;100345.50;6262859;22;20215;-85
2022/10/09 07:33:50;;;;;;;2.13;1.60;;;;;;;13.46;78.80;100346.75;6281154;22;20208;-87
2022/10/09 07:36:17;;;;;;;2.87;1.87;;;;;;;13.72;76.88;100351.09;6274473;22;20207;-88
2022/10/09 07:38:47;;;;;;;4.13;1.63;;;;;;;13.76;73.26;100346.91;6274627;22;20203;-87
2022/10/09 07:41:14;;;;;;;3.60;1.43;;;;;;;13.77;72.20;100348.53;6248321;22;20222;-87
2022/10/09 07:43:41;;;;;;;3.03;1.50;;;;;;;13.78;71.96;100358.25;6223577;22;20233;-87
2022/10/09 07:46:13;;;;;;;4.83;1.90;;;;;;;13.68;72.90;100356.91;6248487;22;20744;-89
2022/10/09 07:48:40;;;;;;;1.63;1.30;;;;;;;13.94;73.28;100358.50;6275372;22;20210;-89
2022/10/09 07:51:12;;;;;;;1.80;1.50;;;;;;;14.12;73.38;100360.38;6248971;22;20231;-90
2022/10/09 07:53:39;;;;;;;2.60;1.40;;;;;;;14.19;70.10;100358.41;6223102;22;20229;-88
2022/10/09 07:56:11;;;;;;;2.50;1.50;;;;;;;14.21;70.76;100348.25;6247906;22;20209;-90
2022/10/09 07:58:37;;;;;;;2.30;1.30;;;;;;;14.04;70.36;100347.22;6223579;22;20291;-89
2022/10/09 08:01:05;;;;;;;3.73;1.80;;;;;;;14.23;68.43;100358.81;6248891;22;20213;-88
2022/10/09 08:03:33;;;;;;;4.27;1.70;;;;;;;14.15;68.40;100362.63;6251701;22;20260;-87
2022/10/09 08:06:00;;;;;;;3.37;1.63;;;;;;;14.03;68.15;100359.03;6249994;22;20613;-89
2022/10/09 08:08:27;;;;;;;3.43;1.70;;;;;;;14.29;68.49;100365.97;6247209;22;20209;-88
2022/10/09 08:10:53;;;;;;;3.80;1.80;;;;;;;14.36;68.52;100366.75;6247959;22;20202;-86
2022/10/09 08:13:20;;;;;;;3.33;1.53;;;;;;;14.19;66.94;100357.59;6247978;22;20284;-87
2022/10/09 08:15:47;;;;;;;2.70;1.20;;;;;;;14.46;67.48;100362.47;6248608;22;20722;-88
2022/10/09 08:18:14;;;;;;;2.03;1.43;;;;;;;14.64;66.80;100367.03;6273590;22;20263;-93
2022/10/09 08:20:40;;;;;;;2.20;1.50;;;;;;;14.61;65.20;100366.63;6249934;22;20283;-91
2022/10/09 08:25:58;;;;;;;2.53;1.70;;;;;;;14.18;66.65;100361.34;6251566;22;20235;-87
2022/10/09 08:28:25;;;;;;;3.50;1.57;;;;;;;14.49;66.94;100362.03;6225447;22;20204;-91
2022/10/09 08:30:51;;;;;;;2.87;1.70;;;;;;;14.60;66.98;100365.84;6250110;22;20204;-93
2022/10/09 08:33:20;;;;;;;1.97;1.50;;;;;;;14.66;65.86;100366.78;6224520;22;20204;-90
2022/10/09 08:35:48;;;;;;;4.47;1.80;;;;;;;14.62;66.05;100376.38;6249285;22;20210;-92
2022/10/09 08:38:16;;;;;;;2.33;1.83;;;;;;;14.38;65.71;100380.81;6219866;22;20244;-89
2022/10/09 08:41:08;;;;;;;3.33;1.77;;;;;;;14.43;66.04;100376.41;6251108;22;20202;-91
2022/10/09 08:43:38;;;;;;;3.10;1.70;;;;;;;14.61;66.17;100369.31;6245994;22;20285;-85
2022/10/09 08:46:16;;;;;;;3.37;1.63;;;;;;;14.85;64.92;100365.69;6271058;22;20186;-89
2022/10/09 08:48:48;;;;;;;2.97;1.50;;;;;;;14.91;65.00;100370.16;6245952;22;20210;-89
2022/10/09 08:51:21;;;;;;;4.03;1.83;;;;;;;15.19;64.77;100364.13;6247990;22;20668;-89
2022/10/09 08:54:02;;;;;;;3.50;1.83;;;;;;;15.14;65.82;100375.63;6248716;22;20206;-90
2022/10/09 08:56:29;;;;;;;3.97;2.00;;;;;;;14.96;65.42;100370.28;6273172;22;20216;-88
2022/10/09 08:58:56;;;;;;;2.47;1.63;;;;;;;14.48;68.22;100364.94;6273505;22;20198;-89
2022/10/09 09:01:30;;;;;;;2.47;1.57;;;;;;;14.86;66.34;100376.25;6249047;22;20207;-90
2022/10/09 09:04:15;;;;;;;4.20;1.87;;;;;;;15.19;65.76;100381.16;6224562;22;20214;-91
2022/10/09 09:07:08;;;;;;;3.27;2.20;;;;;;;15.14;64.52;100369.41;6247737;22;20202;-89
2022/10/09 09:09:41;;;;;;;2.87;1.90;;;;;;;15.24;65.72;100373.19;6272056;22;20210;-88
2022/10/09 09:12:40;;;;;;;4.03;2.20;;;;;;;14.67;67.73;100371.94;6246519;22;20210;-86
2022/10/09 09:15:29;;;;;;;4.00;1.73;;;;;;;15.08;64.71;100370.31;6270024;22;20735;-89
2022/10/09 09:18:15;;;;;;;2.80;2.00;;;;;;;15.07;65.00;100366.78;6272351;22;20241;-88
2022/10/09 09:20:52;;;;;;;3.43;1.90;;;;;;;15.38;65.58;100373.78;6272160;22;20599;-89
2022/10/09 09:23:27;;;;;;;3.03;1.77;;;;;;;15.28;64.65;100368.97;6274223;22;20731;-89
2022/10/09 09:25:54;;;;;;;3.37;2.30;;;;;;;15.51;64.62;100361.97;6245250;22;20664;-86
2022/10/09 09:28:27;;;;;;;3.47;2.10;;;;;;;15.59;63.68;100359.75;6246530;22;20225;-88
2022/10/09 09:30:58;;;;;;;3.10;2.03;;;;;;;15.56;65.58;100354.81;6274019;22;20688;-86
2022/10/09 09:33:44;;;;;;;6.53;2.30;;;;;;;15.23;67.77;100360.75;6271757;22;20286;-87
2022/10/09 09:36:17;;;;;;;3.47;2.37;;;;;;;14.97;68.58;100363.84;6271813;22;20335;-86
2022/10/09 09:38:44;;;;;;;4.20;2.30;;;;;;;14.99;68.98;100367.94;6271189;22;20250;-82
2022/10/09 09:41:31;;;;;;;5.10;2.20;;;;;;;15.36;66.68;100355.13;6273421;22;20670;-83
2022/10/09 09:43:57;;;;;;;4.27;2.20;;;;;;;15.22;68.30;100363.66;6272176;22;20217;-86
2022/10/09 09:46:28;;;;;;;2.87;2.10;;;;;;;15.50;68.02;100355.72;6271512;22;20203;-83
2022/10/09 09:48:55;;;;;;;3.70;2.10;;;;;;;15.20;66.79;100361.22;6270898;22;20233;-83
2022/10/09 09:51:26;;;;;;;5.20;2.30;;;;;;;15.37;66.40;100358.63;6273853;22;20214;-87
2022/10/09 09:53:57;;;;;;;2.97;2.13;;;;;;;15.41;66.61;100362.50;6272709;22;20678;-82
2022/10/09 09:56:38;;;;;;;5.27;3.13;;;;;;;15.60;66.73;100358.69;6273164;22;20220;-82
2022/10/09 09:59:40;;;;;;;3.07;2.20;;;;;;;16.08;64.48;100357.59;6249717;22;20210;-86
2022/10/09 10:02:14;;;;;;;4.77;2.30;;;;;;;15.98;62.26;100366.31;6271869;22;20277;-86
2022/10/09 10:04:53;;;;;;;3.80;2.17;;;;;;;15.76;62.99;100359.88;6272734;22;20457;-82
2022/10/09 10:07:50;;;;;;;6.93;2.57;;;;;;;16.12;63.26;100356.88;6273607;22;20259;-85
2022/10/09 10:10:22;;;;;;;4.97;2.30;;;;;;;15.94;61.17;100357.03;6270989;22;20675;-86
2022/10/09 10:12:51;;;;;;;2.30;2.10;;;;;;;15.81;61.08;100362.69;6268764;22;20284;-83
2022/10/09 10:15:22;;;;;;;3.63;2.07;;;;;;;15.47;61.38;100352.66;6272434;22;20217;-83
2022/10/09 10:17:56;;;;;;;3.77;2.20;;;;;;;15.94;61.16;100353.50;6245248;22;20589;-85
2022/10/09 10:20:23;;;;;;;2.83;1.60;;;;;;;15.91;57.61;100351.28;6267107;22;20196;-83
2022/10/09 10:22:52;;;;;;;4.77;2.10;;;;;;;15.99;58.78;100345.50;6272285;22;20266;-83
2022/10/09 10:25:22;;;;;;;3.73;2.13;;;;;;;16.18;58.89;100344.31;6269383;22;20212;-84
2022/10/09 10:27:52;;;;;;;4.13;2.10;;;;;;;15.55;61.28;100347.75;6270041;22;20200;-83
2022/10/09 10:30:19;;;;;;;4.37;2.07;;;;;;;15.56;61.99;100344.00;6268680;22;20218;-84
2022/10/09 10:32:56;;;;;;;3.50;1.93;;;;;;;15.94;60.76;100340.00;6272877;22;20198;-85
2022/10/09 10:35:26;;;;;;;3.17;1.90;;;;;;;15.65;59.93;100337.19;6271140;22;20206;-83
2022/10/09 10:38:16;;;;;;;3.17;2.00;;;;;;;16.11;59.93;100341.72;6273145;22;20207;-83
2022/10/09 10:40:55;;;;;;;2.80;2.30;;;;;;;15.64;59.83;100340.94;6269895;22;20202;-84
2022/10/09 10:43:33;;;;;;;4.70;2.57;;;;;;;16.21;58.52;100333.00;6273007;22;20214;-85
2022/10/09 10:46:25;;;;;;;4.27;2.20;;;;;;;16.55;57.81;100328.53;6272062;22;20190;-86
2022/10/09 10:48:52;;;;;;;3.83;2.70;;;;;;;16.44;56.92;100316.69;6236862;22;20546;-84
2022/10/09 10:51:24;;;;;;;3.80;2.10;;;;;;;16.84;57.28;100335.63;6271517;22;20659;-83
2022/10/09 10:54:07;;;;;;;3.57;2.33;;;;;;;16.31;57.02;100333.22;6272473;22;20211;-85
2022/10/09 10:56:44;;;;;;;4.10;2.37;;;;;;;16.74;56.08;100330.03;6271155;22;20594;-84
2022/10/09 10:59:34;;;;;;;4.80;2.30;;;;;;;16.41;57.36;100328.00;6246000;22;20527;-83
2022/10/09 11:02:19;;;;;;;4.07;2.20;;;;;;;17.02;57.88;100326.44;6273019;22;20227;-85
2022/10/09 11:05:08;;;;;;;3.57;2.40;;;;;;;17.11;56.80;100322.28;6270807;22;20199;-85
2022/10/09 11:08:00;;;;;;;3.97;2.20;;;;;;;17.50;55.07;100329.38;6271195;22;20616;-84
2022/10/09 11:10:30;;;;;;;3.33;2.33;;;;;;;17.70;54.13;100325.38;6272784;22;20199;-85
2022/10/09 11:13:07;;;;;;;3.93;2.37;;;;;;;17.45;54.73;100325.81;6272995;22;20204;-84
2022/10/09 11:15:51;;;;;;;5.37;2.60;;;;;;;17.73;53.19;100312.13;6271335;22;20219;-83
2022/10/09 11:18:36;;;;;;;4.13;2.60;;;;;;;18.06;52.85;100305.78;6272454;22;20215;-84
2022/10/09 11:21:27;;;;;;;2.40;1.60;;;;;;;17.80;54.31;100301.94;6273096;22;20237;-83
2022/10/09 11:24:30;;;;;;;3.37;2.20;;;;;;;17.87;53.62;100305.28;6270819;22;20209;-83
2022/10/09 11:27:03;;;;;;;3.07;2.00;;;;;;;17.41;55.17;100295.66;6301185;22;20234;-84
2022/10/09 11:29:35;;;;;;;3.40;1.87;;;;;;;17.88;54.41;100293.38;6303580;22;20282;-85
2022/10/09 11:32:22;;;;;;;4.33;2.20;;;;;;;18.35;52.72;100282.81;6303156;22;20207;-84
2022/10/09 11:35:14;;;;;;;3.20;1.70;;;;;;;18.61;52.49;100294.00;6276544;22;20204;-83
2022/10/09 11:37:42;;;;;;;2.87;2.33;;;;;;;18.34;52.38;100288.50;6263624;22;20202;-83
2022/10/09 11:40:35;;;;;;;2.63;1.80;;;;;;;17.13;53.31;100271.38;6275802;22;20203;-83
2022/10/09 11:43:13;;;;;;;3.20;2.10;;;;;;;17.41;52.82;100282.13;6276499;22;20215;-82